Time;durP1;ratioP1;P1;durP2;ratioP2;P2;SDS_P1;SDS_P2;PMS_P1;PMS_P2;Temp;Humidity;BMP_temperature;BMP_pressure;BME280_temperature;BME280_humidity;BME280_pressure;Samples;Min_cycle;Max_cycle;Signal;HPM_P1;HPM_P2
2023/07/05 00:01:02;;;;;;;;;;;;;;;;;;6210844;28;20016;-72
2023/07/05 00:04:03;;;;;;;;;;;;;;;;;;6211691;28;20381;-72
2023/07/05 00:07:03;;;;;;;;;;;;;;;;;;6216265;28;19944;-72
2023/07/05 00:10:03;;;;;;;;;;;;;;;;;;6227747;28;19925;-74
2023/07/05 00:13:03;;;;;;;;;;;;;;;;;;6220038;28;19921;-72
2023/07/05 00:16:03;;;;;;;;;;;;;;;;;;6215355;28;19918;-74
2023/07/05 00:19:03;;;;;;;;;;;;;;;;;;6207614;28;19921;-72
2023/07/05 00:22:03;;;;;;;;;;;;;;;;;;6212793;28;19929;-71
2023/07/05 00:25:03;;;;;;;;;;;;;;;;;;6213342;28;19968;-72
2023/07/05 00:28:04;;;;;;;;;;;;;;;;;;6215778;28;20377;-72
2023/07/05 00:31:04;;;;;;;;;;;;;;;;;;6209276;28;19968;-73
2023/07/05 00:34:04;;;;;;;;;;;;;;;;;;6210115;28;20379;-72
2023/07/05 00:37:04;;;;;;;;;;;;;;;;;;6214463;28;19973;-71
2023/07/05 00:40:04;;;;;;;;;;;;;;;;;;6217231;28;20008;-71
2023/07/05 00:43:04;;;;;;;;;;;;;;;;;;6211838;28;20382;-72
2023/07/05 00:46:04;;;;;;;;;;;;;;;;;;6225015;28;19976;-71
2023/07/05 00:49:05;;;;;;;;;;;;;;;;;;6223119;28;19921;-71
2023/07/05 00:52:05;;;;;;;;;;;;;;;;;;6216438;28;19922;-71
2023/07/05 00:55:05;;;;;;;;;;;;;;;;;;6218341;28;19948;-71
2023/07/05 00:58:05;;;;;;;;;;;;;;;;;;6216062;28;19929;-73
2023/07/05 01:01:05;;;;;;;;;;;;;;;;;;6218085;28;19922;-71
2023/07/05 01:04:05;;;;;;;;;;;;;;;;;;6215522;28;19966;-72
2023/07/05 01:07:05;;;;;;;;;;;;;;;;;;6213147;28;19957;-72
2023/07/05 01:10:07;;;;;;;;;;;;;;;;;;6216677;28;19921;-71
2023/07/05 01:13:07;;;;;;;;;;;;;;;;;;6223900;28;20021;-71
2023/07/05 01:16:07;;;;;;;;;;;;;;;;;;6226083;28;19925;-72
2023/07/05 01:19:07;;;;;;;;;;;;;;;;;;6223491;28;19914;-72
2023/07/05 01:22:07;;;;;;;;;;;;;;;;;;6224060;28;19917;-72
2023/07/05 01:25:07;;;;;;;;;;;;;;;;;;6216234;28;19917;-72
2023/07/05 01:28:07;;;;;;;;;;;;;;;;;;6227540;28;19921;-72
2023/07/05 01:31:08;;;;;;;;;;;;;;;;;;6230695;28;19913;-71
2023/07/05 01:34:08;;;;;;;;;;;;;;;;;;6227882;28;20471;-72
2023/07/05 01:37:08;;;;;;;;;;;;;;;;;;6234409;28;19999;-71
2023/07/05 01:40:08;;;;;;;;;;;;;;;;;;6235412;28;19922;-73
2023/07/05 01:43:10;;;;;;;;;;;;;;;;;;6234664;28;19948;-72
2023/07/05 01:46:10;;;;;;;;;;;;;;;;;;6229894;28;20011;-72
2023/07/05 01:49:10;;;;;;;;;;;;;;;;;;6239753;28;19913;-72
2023/07/05 01:52:10;;;;;;;;;;;;;;;;;;6239697;28;19940;-70
2023/07/05 01:55:10;;;;;;;;;;;;;;;;;;6240151;28;19932;-72
2023/07/05 01:58:10;;;;;;;;;;;;;;;;;;6226889;28;19921;-71
2023/07/05 02:01:11;;;;;;;;;;;;;;;;;;6216617;28;20334;-71
2023/07/05 02:04:12;;;;;;;;;;;;;;;;;;6223054;28;20347;-71
2023/07/05 02:07:12;;;;;;;;;;;;;;;;;;6215670;28;19913;-73
2023/07/05 02:10:14;;;;;;;;;;;;;;;;;;6224859;28;19924;-72
2023/07/05 02:13:14;;;;;;;;;;;;;;;;;;6224786;28;19957;-74
2023/07/05 02:16:14;;;;;;;;;;;;;;;;;;6223260;28;20063;-72
2023/07/05 02:19:14;;;;;;;;;;;;;;;;;;6224417;28;19921;-73
2023/07/05 02:22:14;;;;;;;;;;;;;;;;;;6227653;28;19995;-71
2023/07/05 02:25:14;;;;;;;;;;;;;;;;;;6238295;28;19984;-73
2023/07/05 02:28:14;;;;;;;;;;;;;;;;;;6235511;28;19922;-70
2023/07/05 02:31:14;;;;;;;;;;;;;;;;;;6219796;28;19941;-71
2023/07/05 02:34:14;;;;;;;;;;;;;;;;;;6223569;28;19971;-71
2023/07/05 02:37:15;;;;;;;;;;;;;;;;;;6230770;28;19959;-70
2023/07/05 02:40:15;;;;;;;;;;;;;;;;;;6214156;28;20021;-71
2023/07/05 02:43:15;;;;;;;;;;;;;;;;;;6224007;28;22599;-71
2023/07/05 02:46:15;;;;;;;;;;;;;;;;;;6223155;28;19972;-72
2023/07/05 02:49:15;;;;;;;;;;;;;;;;;;6221342;28;19976;-71
2023/07/05 02:52:15;;;;;;;;;;;;;;;;;;6218623;28;20404;-73
2023/07/05 02:55:16;;;;;;;;;;;;;;;;;;6212444;28;20379;-72
2023/07/05 02:58:16;;;;;;;;;;;;;;;;;;6207034;28;20013;-71
2023/07/05 03:01:16;;;;;;;;;;;;;;;;;;6215072;28;19929;-71
2023/07/05 03:04:16;;;;;;;;;;;;;;;;;;6219857;28;19937;-71
2023/07/05 03:07:16;;;;;;;;;;;;;;;;;;6221332;28;19997;-72
2023/07/05 03:10:16;;;;;;;;;;;;;;;;;;6219428;28;19914;-73
2023/07/05 03:13:18;;;;;;;;;;;;;;;;;;6215932;28;19914;-72
2023/07/05 03:16:18;;;;;;;;;;;;;;;;;;6217790;28;20248;-72
2023/07/05 03:19:18;;;;;;;;;;;;;;;;;;6217708;28;19928;-72
2023/07/05 03:22:19;;;;;;;;;;;;;;;;;;6218215;28;19986;-72
2023/07/05 03:25:19;;;;;;;;;;;;;;;;;;6224302;28;20000;-73
2023/07/05 03:28:19;;;;;;;;;;;;;;;;;;6225295;28;19992;-72
2023/07/05 03:31:19;;;;;;;;;;;;;;;;;;6221190;28;20000;-72
2023/07/05 03:34:19;;;;;;;;;;;;;;;;;;6227057;28;20059;-72
2023/07/05 03:37:19;;;;;;;;;;;;;;;;;;6220929;28;19971;-74
2023/07/05 03:40:19;;;;;;;;;;;;;;;;;;6219540;28;19914;-72
2023/07/05 03:43:19;;;;;;;;;;;;;;;;;;6227432;28;19973;-72
2023/07/05 03:46:20;;;;;;;;;;;;;;;;;;6229766;28;19917;-73
2023/07/05 03:49:22;;;;;;;;;;;;;;;;;;6229064;28;21652;-73
2023/07/05 03:52:22;;;;;;;;;;;;;;;;;;6218466;28;19914;-73
2023/07/05 03:55:22;;;;;;;;;;;;;;;;;;6226626;28;19914;-72
2023/07/05 03:58:22;;;;;;;;;;;;;;;;;;6230094;28;19929;-72
2023/07/05 04:01:22;;;;;;;;;;;;;;;;;;6222086;28;19913;-72
2023/07/05 04:04:22;;;;;;;;;;;;;;;;;;6212423;28;19913;-73
2023/07/05 04:07:22;;;;;;;;;;;;;;;;;;6220520;28;19936;-72
2023/07/05 04:10:23;;;;;;;;;;;;;;;;;;6221175;28;19913;-72
2023/07/05 04:13:23;;;;;;;;;;;;;;;;;;6222402;28;19928;-71
2023/07/05 04:16:24;;;;;;;;;;;;;;;;;;6229016;28;19933;-73
2023/07/05 04:19:24;;;;;;;;;;;;;;;;;;6231506;28;19921;-75
2023/07/05 04:22:24;;;;;;;;;;;;;;;;;;6215032;28;20056;-71
2023/07/05 04:25:24;;;;;;;;;;;;;;;;;;6212134;28;19918;-72
2023/07/05 04:28:24;;;;;;;;;;;;;;;;;;6215134;28;20546;-73
2023/07/05 04:31:27;;;;;;;;;;;;;;;;;;6211199;28;20390;-73
2023/07/05 04:34:27;;;;;;;;;;;;;;;;;;6212162;28;20264;-72
2023/07/05 04:37:27;;;;;;;;;;;;;;;;;;6211859;28;19953;-74
2023/07/05 04:40:27;;;;;;;;;;;;;;;;;;6210541;28;20319;-74
2023/07/05 04:43:27;;;;;;;;;;;;;;;;;;6215698;28;20337;-73
2023/07/05 04:46:27;;;;;;;;;;;;;;;;;;6219030;28;19913;-73
2023/07/05 04:49:27;;;;;;;;;;;;;;;;;;6214859;28;19968;-72
2023/07/05 04:52:27;;;;;;;;;;;;;;;;;;6217901;28;20020;-72
2023/07/05 04:55:28;;;;;;;;;;;;;;;;;;6217010;28;19980;-72
2023/07/05 04:58:28;;;;;;;;;;;;;;;;;;6222331;28;19921;-72
2023/07/05 05:01:28;;;;;;;;;;;;;;;;;;6215399;28;20090;-68
2023/07/05 05:04:28;;;;;;;;;;;;;;;;;;6215937;28;19922;-68
2023/07/05 05:07:28;;;;;;;;;;;;;;;;;;6213466;28;19917;-69
2023/07/05 05:10:28;;;;;;;;;;;;;;;;;;6217264;28;19917;-67
2023/07/05 05:13:28;;;;;;;;;;;;;;;;;;6218453;28;19918;-69
2023/07/05 05:16:28;;;;;;;;;;;;;;;;;;6214041;28;19948;-69
2023/07/05 05:19:29;;;;;;;;;;;;;;;;;;6216959;28;19914;-70
2023/07/05 05:22:29;;;;;;;;;;;;;;;;;;6214641;28;19920;-71
2023/07/05 05:25:29;;;;;;;;;;;;;;;;;;6212329;28;20006;-67
2023/07/05 05:28:30;;;;;;;;;;;;;;;;;;6211678;28;20079;-69
2023/07/05 05:31:31;;;;;;;;;;;;;;;;;;6213099;28;19936;-68
2023/07/05 05:34:31;;;;;;;;;;;;;;;;;;6210700;28;19918;-67
2023/07/05 05:37:31;;;;;;;;;;;;;;;;;;6219052;28;19917;-65
2023/07/05 05:40:31;;;;;;;;;;;;;;;;;;6221581;28;19914;-67
2023/07/05 05:43:31;;;;;;;;;;;;;;;;;;6211928;28;20367;-68
2023/07/05 05:46:31;;;;;;;;;;;;;;;;;;6207144;28;19956;-67
2023/07/05 05:49:32;;;;;;;;;;;;;;;;;;6211552;28;20302;-69
2023/07/05 05:52:32;;;;;;;;;;;;;;;;;;6206279;28;20500;-67
2023/07/05 05:55:32;;;;;;;;;;;;;;;;;;6206055;28;19914;-68
2023/07/05 05:58:32;;;;;;;;;;;;;;;;;;6210811;28;19986;-68
2023/07/05 06:01:32;;;;;;;;;;;;;;;;;;6218665;28;19949;-68
2023/07/05 06:04:32;;;;;;;;;;;;;;;;;;6215361;28;20032;-69
2023/07/05 06:07:32;;;;;;;;;;;;;;;;;;6213719;28;20035;-69
2023/07/05 06:10:33;;;;;;;;;;;;;;;;;;6209968;28;20014;-70
2023/07/05 06:13:33;;;;;;;;;;;;;;;;;;6217193;28;20004;-68
2023/07/05 06:16:33;;;;;;;;;;;;;;;;;;6214372;28;20432;-68
2023/07/05 06:19:33;;;;;;;;;;;;;;;;;;6215978;28;19914;-67
2023/07/05 06:22:33;;;;;;;;;;;;;;;;;;6206596;28;19921;-69
2023/07/05 06:25:34;;;;;;;;;;;;;;;;;;6208730;28;19976;-66
2023/07/05 06:28:34;;;;;;;;;;;;;;;;;;6212367;28;20008;-71
2023/07/05 06:31:34;;;;;;;;;;;;;;;;;;6205756;28;20596;-70
2023/07/05 06:34:34;;;;;;;;;;;;;;;;;;6216830;28;20501;-70
2023/07/05 06:37:34;;;;;;;;;;;;;;;;;;6213392;28;19917;-71
2023/07/05 06:40:34;;;;;;;;;;;;;;;;;;6214311;28;20004;-71
2023/07/05 06:43:34;;;;;;;;;;;;;;;;;;6209866;28;20097;-70
2023/07/05 06:46:34;;;;;;;;;;;;;;;;;;6211773;28;19921;-71
2023/07/05 06:49:35;;;;;;;;;;;;;;;;;;6212020;28;19989;-72
2023/07/05 06:52:35;;;;;;;;;;;;;;;;;;6212305;28;19922;-69
2023/07/05 06:55:35;;;;;;;;;;;;;;;;;;6217568;28;19921;-69
2023/07/05 06:58:35;;;;;;;;;;;;;;;;;;6215126;28;20032;-72
2023/07/05 07:01:35;;;;;;;;;;;;;;;;;;6215674;28;19913;-70
2023/07/05 07:04:35;;;;;;;;;;;;;;;;;;6215694;28;19918;-70
2023/07/05 07:07:35;;;;;;;;;;;;;;;;;;6205156;28;19914;-70
2023/07/05 07:10:36;;;;;;;;;;;;;;;;;;6204967;28;19921;-69
2023/07/05 07:13:36;;;;;;;;;;;;;;;;;;6206478;28;20012;-69
2023/07/05 07:16:36;;;;;;;;;;;;;;;;;;6211743;28;19960;-69
2023/07/05 07:19:36;;;;;;;;;;;;;;;;;;6215430;28;19924;-70
2023/07/05 07:22:36;;;;;;;;;;;;;;;;;;6208516;28;20049;-71
2023/07/05 07:25:36;;;;;;;;;;;;;;;;;;6212490;28;19910;-70
2023/07/05 07:28:36;;;;;;;;;;;;;;;;;;6207777;28;20349;-68
2023/07/05 07:31:37;;;;;;;;;;;;;;;;;;6215460;28;19948;-70
2023/07/05 07:34:37;;;;;;;;;;;;;;;;;;6213404;28;19918;-70
2023/07/05 07:37:37;;;;;;;;;;;;;;;;;;6210342;28;20135;-70
2023/07/05 07:40:37;;;;;;;;;;;;;;;;;;6214241;28;20011;-72
2023/07/05 07:43:37;;;;;;;;;;;;;;;;;;6219513;28;20108;-69
2023/07/05 07:46:37;;;;;;;;;;;;;;;;;;6214938;28;20039;-68
2023/07/05 07:49:37;;;;;;;;;;;;;;;;;;6215006;28;19913;-69
2023/07/05 07:52:37;;;;;;;;;;;;;;;;;;6214135;28;19909;-67
2023/07/05 07:55:38;;;;;;;;;;;;;;;;;;6213062;28;19981;-69
2023/07/05 07:58:38;;;;;;;;;;;;;;;;;;6208221;28;20194;-69
2023/07/05 08:01:38;;;;;;;;;;;;;;;;;;6214273;28;20283;-68
2023/07/05 08:04:38;;;;;;;;;;;;;;;;;;6210533;28;19917;-68
2023/07/05 08:07:38;;;;;;;;;;;;;;;;;;6209238;28;19924;-69
2023/07/05 08:10:39;;;;;;;;;;;;;;;;;;6208518;28;19994;-69
2023/07/05 08:13:40;;;;;;;;;;;;;;;;;;6204830;28;19977;-70
2023/07/05 08:16:40;;;;;;;;;;;;;;;;;;6210223;28;19914;-69
2023/07/05 08:19:40;;;;;;;;;;;;;;;;;;6217883;28;20008;-69
2023/07/05 08:22:41;;;;;;;;;;;;;;;;;;6213293;28;20005;-71
2023/07/05 08:25:42;;;;;;;;;;;;;;;;;;6216170;28;20012;-70
2023/07/05 08:28:42;;;;;;;;;;;;;;;;;;6213114;28;19913;-70
2023/07/05 08:31:42;;;;;;;;;;;;;;;;;;6218894;28;19916;-70
2023/07/05 08:34:42;;;;;;;;;;;;;;;;;;6209837;28;19917;-69
2023/07/05 08:37:48;;;;;;;;;;;;;;;;;;6210241;28;19917;-68
2023/07/05 08:40:48;;;;;;;;;;;;;;;;;;6204549;28;20338;-67
2023/07/05 08:43:48;;;;;;;;;;;;;;;;;;6210558;28;19949;-69
2023/07/05 08:46:48;;;;;;;;;;;;;;;;;;6209426;28;19976;-70
2023/07/05 08:49:49;;;;;;;;;;;;;;;;;;6226157;28;19989;-71
2023/07/05 08:52:49;;;;;;;;;;;;;;;;;;6228304;28;19960;-69
2023/07/05 08:55:49;;;;;;;;;;;;;;;;;;6214799;28;20029;-69
2023/07/05 08:58:49;;;;;;;;;;;;;;;;;;6210228;28;20308;-70
2023/07/05 09:01:49;;;;;;;;;;;;;;;;;;6211730;28;20000;-71
2023/07/05 09:04:50;;;;;;;;;;;;;;;;;;6211027;28;19928;-70
2023/07/05 09:07:50;;;;;;;;;;;;;;;;;;6209008;28;19957;-69
2023/07/05 09:10:50;;;;;;;;;;;;;;;;;;6207720;28;20446;-70
2023/07/05 09:13:50;;;;;;;;;;;;;;;;;;6206469;28;19914;-70
2023/07/05 09:16:50;;;;;;;;;;;;;;;;;;6213022;28;19921;-69
2023/07/05 09:19:51;;;;;;;;;;;;;;;;;;6212640;28;19913;-69
2023/07/05 09:22:51;;;;;;;;;;;;;;;;;;6214106;28;19992;-70
2023/07/05 09:25:51;;;;;;;;;;;;;;;;;;6219202;28;19914;-70
2023/07/05 09:28:51;;;;;;;;;;;;;;;;;;6211389;28;19922;-70
2023/07/05 09:31:51;;;;;;;;;;;;;;;;;;6210964;28;20009;-69
2023/07/05 09:34:51;;;;;;;;;;;;;;;;;;6226105;28;19961;-70
2023/07/05 09:37:52;;;;;;;;;;;;;;;;;;6219099;28;20039;-72
2023/07/05 09:40:52;;;;;;;;;;;;;;;;;;6213511;28;19921;-68
2023/07/05 09:43:52;;;;;;;;;;;;;;;;;;6223119;28;19917;-69
2023/07/05 09:46:53;;;;;;;;;;;;;;;;;;6218916;28;19914;-70
2023/07/05 09:49:53;;;;;;;;;;;;;;;;;;6220547;28;19921;-69
2023/07/05 09:52:53;;;;;;;;;;;;;;;;;;6233539;28;19901;-70
2023/07/05 09:55:57;;;;;;;;;;;;;;;;;;6230122;28;19913;-70
2023/07/05 09:58:57;;;;;;;;;;;;;;;;;;6223999;28;20338;-70
2023/07/05 10:01:57;;;;;;;;;;;;;;;;;;6217636;28;20044;-70
2023/07/05 10:04:58;;;;;;;;;;;;;;;;;;6213235;28;20016;-70
2023/07/05 10:07:58;;;;;;;;;;;;;;;;;;6216808;28;19917;-70
2023/07/05 10:10:59;;;;;;;;;;;;;;;;;;6222886;28;19971;-70
2023/07/05 10:13:59;;;;;;;;;;;;;;;;;;6216779;28;19920;-69
2023/07/05 10:16:59;;;;;;;;;;;;;;;;;;6222637;28;19948;-70
2023/07/05 10:20:00;;;;;;;;;;;;;;;;;;6220335;28;19922;-70
2023/07/05 10:23:01;;;;;;;;;;;;;;;;;;6209597;28;19914;-70
2023/07/05 10:26:01;;;;;;;;;;;;;;;;;;6212630;28;19918;-70
2023/07/05 10:29:01;;;;;;;;;;;;;;;;;;6211587;28;19918;-70
2023/07/05 10:32:01;;;;;;;;;;;;;;;;;;6219162;28;19917;-70
2023/07/05 10:35:01;;;;;;;;;;;;;;;;;;6214067;28;19917;-70
2023/07/05 10:38:01;;;;;;;;;;;;;;;;;;5873159;28;10000291;-70
2023/07/05 10:41:02;;;;;;;;;;;;;;;;;;6216097;28;19984;-70
2023/07/05 10:44:02;;;;;;;;;;;;;;;;;;6214518;28;19952;-70
2023/07/05 10:47:02;;;;;;;;;;;;;;;;;;6213023;28;19923;-70
2023/07/05 10:50:02;;;;;;;;;;;;;;;;;;6216767;28;19992;-70
2023/07/05 10:53:03;;;;;;;;;;;;;;;;;;6215166;28;19914;-70
2023/07/05 10:56:03;;;;;;;;;;;;;;;;;;6206813;28;19925;-70
2023/07/05 10:59:04;;;;;;;;;;;;;;;;;;6209338;28;20074;-69
2023/07/05 11:02:04;;;;;;;;;;;;;;;;;;6218551;28;19925;-68
2023/07/05 11:05:04;;;;;;;;;;;;;;;;;;6216021;28;20328;-71
2023/07/05 11:08:04;;;;;;;;;;;;;;;;;;6218080;28;19948;-71
2023/07/05 11:11:04;;;;;;;;;;;;;;;;;;6213843;28;19953;-71
2023/07/05 11:14:04;;;;;;;;;;;;;;;;;;6221189;28;19913;-69
2023/07/05 11:17:04;;;;;;;;;;;;;;;;;;6218656;28;19972;-70
2023/07/05 11:20:06;;;;;;;;;;;;;;;;;;6222303;28;19914;-71
2023/07/05 11:23:06;;;;;;;;;;;;;;;;;;6211503;28;19925;-70
2023/07/05 11:26:06;;;;;;;;;;;;;;;;;;6206690;28;19918;-69
2023/07/05 11:29:06;;;;;;;;;;;;;;;;;;6211805;28;19913;-70
2023/07/05 11:32:08;;;;;;;;;;;;;;;;;;6219185;28;19921;-70
2023/07/05 11:35:08;;;;;;;;;;;;;;;;;;6217926;28;19921;-70
2023/07/05 11:38:08;;;;;;;;;;;;;;;;;;6213151;28;19922;-70
2023/07/05 11:41:09;;;;;;;;;;;;;;;;;;6211912;28;19917;-70
2023/07/05 11:44:09;;;;;;;;;;;;;;;;;;6217218;28;20013;-70
2023/07/05 11:47:10;;;;;;;;;;;;;;;;;;6215843;28;19921;-69
2023/07/05 11:50:10;;;;;;;;;;;;;;;;;;6225883;28;19917;-72
2023/07/05 11:53:13;;;;;;;;;;;;;;;;;;6228074;28;19914;-71
2023/07/05 11:56:13;;;;;;;;;;;;;;;;;;6212012;28;20004;-71
2023/07/05 11:59:13;;;;;;;;;;;;;;;;;;6212218;28;20302;-71
2023/07/05 12:02:13;;;;;;;;;;;;;;;;;;6213852;28;20327;-71
2023/07/05 12:05:14;;;;;;;;;;;;;;;;;;6211647;28;19917;-72
2023/07/05 12:08:14;;;;;;;;;;;;;;;;;;6200069;28;20023;-72
2023/07/05 12:11:14;;;;;;;;;;;;;;;;;;6211479;28;19918;-73
2023/07/05 12:14:14;;;;;;;;;;;;;;;;;;6205453;28;19918;-74
2023/07/05 12:17:15;;;;;;;;;;;;;;;;;;6211339;28;19921;-75
2023/07/05 12:20:15;;;;;;;;;;;;;;;;;;6214647;28;19913;-74
2023/07/05 12:23:16;;;;;;;;;;;;;;;;;;6210303;28;19913;-75
2023/07/05 12:26:16;;;;;;;;;;;;;;;;;;6204910;28;20282;-75
2023/07/05 12:29:16;;;;;;;;;;;;;;;;;;6212504;28;19914;-73
2023/07/05 12:32:16;;;;;;;;;;;;;;;;;;6204993;28;19920;-76
2023/07/05 12:35:16;;;;;;;;;;;;;;;;;;6208799;28;19922;-77
2023/07/05 12:38:19;;;;;;;;;;;;;;;;;;6211718;28;20310;-76
2023/07/05 12:41:19;;;;;;;;;;;;;;;;;;6213218;28;19917;-76
2023/07/05 12:44:20;;;;;;;;;;;;;;;;;;6210099;28;19962;-75
2023/07/05 12:47:20;;;;;;;;;;;;;;;;;;6209671;28;19916;-76
2023/07/05 12:50:20;;;;;;;;;;;;;;;;;;6205867;28;19993;-75
2023/07/05 12:53:20;;;;;;;;;;;;;;;;;;6210231;28;19953;-74
2023/07/05 12:56:20;;;;;;;;;;;;;;;;;;6206297;28;19992;-75
2023/07/05 12:59:20;;;;;;;;;;;;;;;;;;6211652;28;19909;-77
2023/07/05 13:02:20;;;;;;;;;;;;;;;;;;6203384;28;20039;-75
2023/07/05 13:05:20;;;;;;;;;;;;;;;;;;6205425;28;20371;-73
2023/07/05 13:08:21;;;;;;;;;;;;;;;;;;6213680;28;19913;-74
2023/07/05 13:11:21;;;;;;;;;;;;;;;;;;6219620;28;20388;-74
2023/07/05 13:14:21;;;;;;;;;;;;;;;;;;6207338;28;19954;-73
2023/07/05 13:17:21;;;;;;;;;;;;;;;;;;6209800;28;19922;-73
2023/07/05 13:20:21;;;;;;;;;;;;;;;;;;6212183;28;19960;-73
2023/07/05 13:23:21;;;;;;;;;;;;;;;;;;6210604;28;19953;-73
2023/07/05 13:26:23;;;;;;;;;;;;;;;;;;6215160;28;19925;-73
2023/07/05 13:29:24;;;;;;;;;;;;;;;;;;6214389;28;19964;-71
2023/07/05 13:32:24;;;;;;;;;;;;;;;;;;6218112;28;19917;-73
2023/07/05 13:35:24;;;;;;;;;;;;;;;;;;6215041;28;19917;-69
2023/07/05 13:38:24;;;;;;;;;;;;;;;;;;6211639;28;20428;-68
2023/07/05 13:41:24;;;;;;;;;;;;;;;;;;6211640;28;20538;-71
2023/07/05 13:44:24;;;;;;;;;;;;;;;;;;6209380;28;19929;-68
2023/07/05 13:47:24;;;;;;;;;;;;;;;;;;6218984;28;20035;-68
2023/07/05 13:50:25;;;;;;;;;;;;;;;;;;6213498;28;19914;-68
2023/07/05 13:53:25;;;;;;;;;;;;;;;;;;6211206;28;19918;-68
2023/07/05 13:56:25;;;;;;;;;;;;;;;;;;6207062;28;19944;-69
2023/07/05 13:59:25;;;;;;;;;;;;;;;;;;6213653;28;19917;-66
2023/07/05 14:02:25;;;;;;;;;;;;;;;;;;6213790;28;19944;-67
2023/07/05 14:05:28;;;;;;;;;;;;;;;;;;6213084;28;19960;-68
2023/07/05 14:08:28;;;;;;;;;;;;;;;;;;6214884;28;20126;-70
2023/07/05 14:11:29;;;;;;;;;;;;;;;;;;6204385;28;19918;-68
2023/07/05 14:14:29;;;;;;;;;;;;;;;;;;6213998;28;19917;-68
2023/07/05 14:17:31;;;;;;;;;;;;;;;;;;6211312;28;19991;-67
2023/07/05 14:20:31;;;;;;;;;;;;;;;;;;6213742;28;19933;-68
2023/07/05 14:23:31;;;;;;;;;;;;;;;;;;6214054;28;19931;-67
2023/07/05 14:26:34;;;;;;;;;;;;;;;;;;6213573;28;19936;-66
2023/07/05 14:29:34;;;;;;;;;;;;;;;;;;6208604;28;20296;-68
2023/07/05 14:32:35;;;;;;;;;;;;;;;;;;6212641;28;20414;-69
2023/07/05 14:35:35;;;;;;;;;;;;;;;;;;6215517;28;19927;-68
2023/07/05 14:38:35;;;;;;;;;;;;;;;;;;6217398;28;19914;-69
2023/07/05 14:41:35;;;;;;;;;;;;;;;;;;6216523;28;19914;-68
2023/07/05 14:44:35;;;;;;;;;;;;;;;;;;6213137;28;19921;-68
2023/07/05 14:47:35;;;;;;;;;;;;;;;;;;6223025;28;20009;-68
2023/07/05 14:50:35;;;;;;;;;;;;;;;;;;6218193;28;19920;-69
2023/07/05 14:53:36;;;;;;;;;;;;;;;;;;6229620;28;19924;-69
2023/07/05 14:56:40;;;;;;;;;;;;;;;;;;6230906;28;20040;-72
2023/07/05 14:59:40;;;;;;;;;;;;;;;;;;6228216;28;19925;-70
2023/07/05 15:02:40;;;;;;;;;;;;;;;;;;6221492;28;19922;-70
2023/07/05 15:05:40;;;;;;;;;;;;;;;;;;6213880;28;20032;-71
2023/07/05 15:08:40;;;;;;;;;;;;;;;;;;6216083;28;19917;-71
2023/07/05 15:11:41;;;;;;;;;;;;;;;;;;6214827;28;19910;-71
2023/07/05 15:14:42;;;;;;;;;;;;;;;;;;6208786;28;19928;-72
2023/07/05 15:17:42;;;;;;;;;;;;;;;;;;6231417;28;19925;-73
2023/07/05 15:20:42;;;;;;;;;;;;;;;;;;6214809;28;19924;-72
2023/07/05 15:23:42;;;;;;;;;;;;;;;;;;6216212;28;19913;-70
2023/07/05 15:26:43;;;;;;;;;;;;;;;;;;6209256;28;19918;-70
2023/07/05 15:29:43;;;;;;;;;;;;;;;;;;6210998;28;19918;-71
2023/07/05 15:32:43;;;;;;;;;;;;;;;;;;6209787;28;20354;-72
2023/07/05 15:35:45;;;;;;;;;;;;;;;;;;6209227;28;19967;-72
2023/07/05 15:38:45;;;;;;;;;;;;;;;;;;5871441;28;9999981;-74
2023/07/05 15:41:45;;;;;;;;;;;;;;;;;;6209773;28;19918;-73
2023/07/05 15:44:45;;;;;;;;;;;;;;;;;;6204493;28;19976;-73
2023/07/05 15:47:48;;;;;;;;;;;;;;;;;;6215896;28;20278;-73
2023/07/05 15:50:48;;;;;;;;;;;;;;;;;;6213031;28;20450;-76
2023/07/05 15:53:49;;;;;;;;;;;;;;;;;;6208302;28;19944;-73
2023/07/05 15:56:49;;;;;;;;;;;;;;;;;;6207089;28;19926;-73
2023/07/05 15:59:57;;;;;;;;;;;;;;;;;;6211206;28;19980;-74
2023/07/05 16:02:58;;;;;;;;;;;;;;;;;;6208980;28;19948;-74
2023/07/05 16:05:59;;;;;;;;;;;;;;;;;;5869886;28;10000341;-74
2023/07/05 16:08:59;;;;;;;;;;;;;;;;;;6205704;28;19978;-73
2023/07/05 16:11:59;;;;;;;;;;;;;;;;;;5870082;28;9999753;-73
2023/07/05 16:14:59;;;;;;;;;;;;;;;;;;6209571;28;19920;-73
2023/07/05 16:17:59;;;;;;;;;;;;;;;;;;6211975;28;19921;-74
2023/07/05 16:20:59;;;;;;;;;;;;;;;;;;6210712;28;20283;-74
2023/07/05 16:23:59;;;;;;;;;;;;;;;;;;6207177;28;19924;-74
2023/07/05 16:27:00;;;;;;;;;;;;;;;;;;6206624;28;20402;-75
2023/07/05 16:30:00;;;;;;;;;;;;;;;;;;6217301;28;19922;-74
2023/07/05 16:33:00;;;;;;;;;;;;;;;;;;6212724;28;19956;-77
2023/07/05 16:36:00;;;;;;;;;;;;;;;;;;6209004;28;20000;-77
2023/07/05 16:39:01;;;;;;;;;;;;;;;;;;6214610;28;19943;-75
2023/07/05 16:42:01;;;;;;;;;;;;;;;;;;6216442;28;19918;-77
2023/07/05 16:45:01;;;;;;;;;;;;;;;;;;6208129;28;19913;-77
2023/07/05 16:48:01;;;;;;;;;;;;;;;;;;6215951;28;19993;-77
2023/07/05 16:51:01;;;;;;;;;;;;;;;;;;6214097;28;20619;-76
2023/07/05 16:54:01;;;;;;;;;;;;;;;;;;6205519;28;19937;-76
2023/07/05 16:57:04;;;;;;;;;;;;;;;;;;6207456;28;19914;-76
2023/07/05 17:00:04;;;;;;;;;;;;;;;;;;6214237;28;20314;-77
2023/07/05 17:03:05;;;;;;;;;;;;;;;;;;6216589;28;19912;-78
2023/07/05 17:06:05;;;;;;;;;;;;;;;;;;6217419;28;19925;-78
2023/07/05 17:09:05;;;;;;;;;;;;;;;;;;6208341;28;19936;-78
2023/07/05 17:12:05;;;;;;;;;;;;;;;;;;6220288;28;19957;-81
2023/07/05 17:15:05;;;;;;;;;;;;;;;;;;6220398;28;19913;-79
2023/07/05 17:18:07;;;;;;;;;;;;;;;;;;6218442;28;19917;-79
2023/07/05 17:21:07;;;;;;;;;;;;;;;;;;6224839;28;20311;-79
2023/07/05 17:24:07;;;;;;;;;;;;;;;;;;6239612;28;20032;-79
2023/07/05 17:27:07;;;;;;;;;;;;;;;;;;6211576;28;19918;-78
2023/07/05 17:30:07;;;;;;;;;;;;;;;;;;6223660;28;19964;-82
2023/07/05 17:33:09;;;;;;;;;;;;;;;;;;6218301;28;19956;-75
2023/07/05 17:36:09;;;;;;;;;;;;;;;;;;6232721;28;19944;-76
2023/07/05 17:39:09;;;;;;;;;;;;;;;;;;6226787;28;19918;-78
2023/07/05 17:42:09;;;;;;;;;;;;;;;;;;6227831;28;19928;-75
2023/07/05 17:45:09;;;;;;;;;;;;;;;;;;6216078;28;19918;-75
2023/07/05 17:48:09;;;;;;;;;;;;;;;;;;6218025;28;20278;-75
2023/07/05 17:51:09;;;;;;;;;;;;;;;;;;6220458;28;19918;-75
2023/07/05 17:54:11;;;;;;;;;;;;;;;;;;6217418;28;20513;-74
2023/07/05 17:57:11;;;;;;;;;;;;;;;;;;6218225;28;20262;-75
2023/07/05 18:00:11;;;;;;;;;;;;;;;;;;6223693;28;19917;-74
2023/07/05 18:03:11;;;;;;;;;;;;;;;;;;6216884;28;20666;-71
2023/07/05 18:06:11;;;;;;;;;;;;;;;;;;6212797;28;20291;-73
2023/07/05 18:09:12;;;;;;;;;;;;;;;;;;6217404;28;20378;-73
2023/07/05 18:12:12;;;;;;;;;;;;;;;;;;6218609;28;19929;-73
2023/07/05 18:15:12;;;;;;;;;;;;;;;;;;6227079;28;19964;-72
2023/07/05 18:18:14;;;;;;;;;;;;;;;;;;6223575;28;19987;-76
2023/07/05 18:21:15;;;;;;;;;;;;;;;;;;6234024;28;19921;-73
2023/07/05 18:24:15;;;;;;;;;;;;;;;;;;6232056;28;20261;-74
2023/07/05 18:27:15;;;;;;;;;;;;;;;;;;6226722;28;19924;-73
2023/07/05 18:30:16;;;;;;;;;;;;;;;;;;6222052;28;19917;-74
2023/07/05 18:33:16;;;;;;;;;;;;;;;;;;6218645;28;19917;-73
2023/07/05 18:36:20;;;;;;;;;;;;;;;;;;6217634;28;19914;-75
2023/07/05 18:39:20;;;;;;;;;;;;;;;;;;6222880;28;19921;-75
2023/07/05 18:42:20;;;;;;;;;;;;;;;;;;6223542;28;19967;-75
2023/07/05 18:45:21;;;;;;;;;;;;;;;;;;6226122;28;19917;-75
2023/07/05 18:48:21;;;;;;;;;;;;;;;;;;6221988;28;19921;-75
2023/07/05 18:51:21;;;;;;;;;;;;;;;;;;6224151;28;19924;-74
2023/07/05 18:54:21;;;;;;;;;;;;;;;;;;6227138;28;19928;-74
2023/07/05 18:57:21;;;;;;;;;;;;;;;;;;6219861;28;19926;-73
2023/07/05 19:00:21;;;;;;;;;;;;;;;;;;6213134;28;20474;-72
2023/07/05 19:03:22;;;;;;;;;;;;;;;;;;6222891;28;20347;-76
2023/07/05 19:06:23;;;;;;;;;;;;;;;;;;6222088;28;19948;-74
2023/07/05 19:09:23;;;;;;;;;;;;;;;;;;6226295;28;19917;-73
2023/07/05 19:12:23;;;;;;;;;;;;;;;;;;6227977;28;20004;-75
2023/07/05 19:15:23;;;;;;;;;;;;;;;;;;6230947;28;19920;-78
2023/07/05 19:18:23;;;;;;;;;;;;;;;;;;6222036;28;19984;-77
2023/07/05 19:21:24;;;;;;;;;;;;;;;;;;6217679;28;19918;-78
2023/07/05 19:24:24;;;;;;;;;;;;;;;;;;6220487;28;20550;-78
2023/07/05 19:27:24;;;;;;;;;;;;;;;;;;6223857;28;20354;-78
2023/07/05 19:30:25;;;;;;;;;;;;;;;;;;6225973;28;20000;-78
2023/07/05 19:33:25;;;;;;;;;;;;;;;;;;6213192;28;20016;-75
2023/07/05 19:36:25;;;;;;;;;;;;;;;;;;6221447;28;19913;-75
2023/07/05 19:39:25;;;;;;;;;;;;;;;;;;6221898;28;19937;-75
2023/07/05 19:42:25;;;;;;;;;;;;;;;;;;6218255;28;19920;-75
2023/07/05 19:45:26;;;;;;;;;;;;;;;;;;6216968;28;19927;-74
2023/07/05 19:48:26;;;;;;;;;;;;;;;;;;6218358;28;19925;-72
2023/07/05 19:51:26;;;;;;;;;;;;;;;;;;6216353;28;20276;-72
2023/07/05 19:54:26;;;;;;;;;;;;;;;;;;6212888;28;20379;-72
2023/07/05 19:57:26;;;;;;;;;;;;;;;;;;6214123;28;19922;-72
2023/07/05 20:00:27;;;;;;;;;;;;;;;;;;6210685;28;19917;-75
2023/07/05 20:03:27;;;;;;;;;;;;;;;;;;6213070;28;20024;-71
2023/07/05 20:06:27;;;;;;;;;;;;;;;;;;6216097;28;19925;-75
2023/07/05 20:09:27;;;;;;;;;;;;;;;;;;6199024;28;19920;-73
2023/07/05 20:12:27;;;;;;;;;;;;;;;;;;6204530;28;19928;-75
2023/07/05 20:15:31;;;;;;;;;;;;;;;;;;6213751;28;19925;-78
2023/07/05 20:18:31;;;;;;;;;;;;;;;;;;6210994;28;19927;-75
2023/07/05 20:21:31;;;;;;;;;;;;;;;;;;6209579;28;20359;-70
2023/07/05 20:24:31;;;;;;;;;;;;;;;;;;6207986;28;20279;-67
2023/07/05 20:27:31;;;;;;;;;;;;;;;;;;6203393;28;20604;-68
2023/07/05 20:30:32;;;;;;;;;;;;;;;;;;6203666;28;19918;-68